createdAt,value
2022-12-13T00:01:57.860Z,2.03
2022-12-13T00:04:27.262Z,2.30
2022-12-13T00:06:56.765Z,2.37
2022-12-13T00:09:27.642Z,2.17
2022-12-13T00:11:56.807Z,2.50
2022-12-13T00:14:25.962Z,1.70
2022-12-13T00:16:55.294Z,1.60
2022-12-13T00:19:25.060Z,1.73
2022-12-13T00:21:54.519Z,1.70
2022-12-13T00:24:23.762Z,1.50
2022-12-13T00:26:56.555Z,1.67
2022-12-13T00:29:26.086Z,1.70
2022-12-13T00:32:00.465Z,2.43
2022-12-13T00:34:30.627Z,2.37
2022-12-13T00:37:04.945Z,2.20
2022-12-13T00:39:34.194Z,2.10
2022-12-13T00:42:04.842Z,2.10
2022-12-13T00:44:34.141Z,1.97
2022-12-13T00:47:03.311Z,1.80
2022-12-13T00:49:32.528Z,2.57
2022-12-13T00:52:01.666Z,2.73
2022-12-13T00:54:30.967Z,3.20
2022-12-13T00:57:00.158Z,2.50
2022-12-13T00:59:31.080Z,2.23
2022-12-13T01:02:00.545Z,2.43
2022-12-13T01:04:29.871Z,2.30
2022-12-13T01:06:59.263Z,1.70
2022-12-13T01:09:31.216Z,2.50
2022-12-13T01:12:01.036Z,2.03
2022-12-13T01:14:31.880Z,2.07
2022-12-13T01:17:01.099Z,2.57
2022-12-13T01:19:30.960Z,2.03
2022-12-13T01:22:01.197Z,2.73
2022-12-13T01:24:30.863Z,1.87
2022-12-13T01:27:00.345Z,3.53
2022-12-13T01:29:29.620Z,2.50
2022-12-13T01:32:00.246Z,3.33
2022-12-13T01:34:29.548Z,2.40
2022-12-13T01:36:59.101Z,2.67
2022-12-13T01:39:28.752Z,2.60
2022-12-13T01:42:00.168Z,2.37
2022-12-13T01:44:48.094Z,3.20
2022-12-13T01:47:20.630Z,2.60
2022-12-13T01:49:50.079Z,2.43
2022-12-13T01:52:19.941Z,2.90
2022-12-13T01:54:51.135Z,2.87
2022-12-13T01:57:21.204Z,2.90
2022-12-13T01:59:51.097Z,2.80
2022-12-13T02:02:22.052Z,2.40
2022-12-13T02:04:54.396Z,2.60
2022-12-13T02:07:26.269Z,3.70
2022-12-13T02:09:57.463Z,2.83
2022-12-13T02:12:29.641Z,3.03
2022-12-13T02:15:01.089Z,3.30
2022-12-13T02:17:44.584Z,2.57
2022-12-13T02:20:34.743Z,2.50
2022-12-13T02:23:13.339Z,2.80
2022-12-13T02:25:53.140Z,3.13
2022-12-13T02:28:34.130Z,2.50
2022-12-13T02:31:06.961Z,3.57
2022-12-13T02:33:40.877Z,4.07
2022-12-13T02:36:11.565Z,2.40
2022-12-13T02:38:48.103Z,3.20
2022-12-13T02:41:19.283Z,2.70
2022-12-13T02:43:51.511Z,2.63
2022-12-13T02:46:23.696Z,2.80
2022-12-13T02:48:54.994Z,2.47
2022-12-13T02:51:25.108Z,3.23
2022-12-13T02:53:54.323Z,2.80
2022-12-13T02:56:23.877Z,3.07
2022-12-13T02:58:54.665Z,2.30
2022-12-13T03:01:40.186Z,2.77
2022-12-13T03:04:14.314Z,2.10
2022-12-13T03:06:47.974Z,6.80
2022-12-13T03:09:24.804Z,4.13
2022-12-13T03:12:27.715Z,2.30
2022-12-13T03:15:00.830Z,2.00
2022-12-13T03:17:34.027Z,2.50
2022-12-13T03:20:12.780Z,3.13
2022-12-13T03:22:52.111Z,2.50
2022-12-13T03:25:32.035Z,2.10
2022-12-13T03:28:02.974Z,1.70
2022-12-13T03:30:32.684Z,1.83
2022-12-13T03:33:03.475Z,1.90
2022-12-13T03:35:34.311Z,3.43
2022-12-13T03:38:22.007Z,3.40
2022-12-13T03:40:54.254Z,3.00
2022-12-13T03:43:23.808Z,2.47
2022-12-13T03:45:53.324Z,1.70
2022-12-13T03:48:24.504Z,4.20
2022-12-13T03:50:54.475Z,3.00
2022-12-13T03:53:32.174Z,2.87
2022-12-13T03:56:05.238Z,2.17
2022-12-13T03:58:37.300Z,4.83
2022-12-13T04:01:08.289Z,2.43
2022-12-13T04:03:39.883Z,4.63
2022-12-13T04:06:09.635Z,4.63
2022-12-13T04:08:39.694Z,3.00
2022-12-13T04:11:23.248Z,2.40
2022-12-13T04:13:52.683Z,4.67
2022-12-13T04:16:21.877Z,4.23
2022-12-13T04:18:52.534Z,4.80
2022-12-13T04:21:21.789Z,3.27
2022-12-13T04:23:50.934Z,3.83
2022-12-13T04:26:20.443Z,4.37
2022-12-13T04:28:54.493Z,2.97
2022-12-13T04:31:24.260Z,3.97
2022-12-13T04:33:54.828Z,4.73
2022-12-13T04:36:32.292Z,4.43
2022-12-13T04:39:03.216Z,3.10
2022-12-13T04:41:37.604Z,3.90
2022-12-13T04:44:07.536Z,3.83
2022-12-13T04:47:01.323Z,5.70
2022-12-13T04:49:32.605Z,3.47
2022-12-13T04:52:02.452Z,3.87
2022-12-13T04:54:36.663Z,2.87
2022-12-13T04:57:08.105Z,2.73
2022-12-13T04:59:37.500Z,5.10
2022-12-13T05:02:07.581Z,4.83
2022-12-13T05:04:38.907Z,2.90
2022-12-13T05:07:08.163Z,5.43
2022-12-13T05:09:38.007Z,5.33
2022-12-13T05:12:21.867Z,3.43
2022-12-13T05:14:52.296Z,4.13
2022-12-13T05:17:21.536Z,3.70
2022-12-13T05:19:53.142Z,3.27
2022-12-13T05:22:22.684Z,4.10
2022-12-13T05:24:51.896Z,3.50
2022-12-13T05:27:24.748Z,3.57
2022-12-13T05:30:03.135Z,4.20
2022-12-13T05:32:42.554Z,5.17
2022-12-13T05:35:22.181Z,4.13
2022-12-13T05:37:54.340Z,4.07
2022-12-13T05:40:24.353Z,3.67
2022-12-13T05:43:00.670Z,4.73
2022-12-13T05:45:31.402Z,5.33
2022-12-13T05:48:01.620Z,3.90
2022-12-13T05:50:32.563Z,4.27
2022-12-13T05:53:02.002Z,4.43
2022-12-13T05:55:31.207Z,3.10
2022-12-13T05:58:02.057Z,6.40
2022-12-13T06:00:32.090Z,7.87
2022-12-13T06:03:02.062Z,6.40
2022-12-13T06:05:33.186Z,5.00
2022-12-13T06:08:02.580Z,3.20
2022-12-13T06:10:35.157Z,4.00
2022-12-13T06:13:31.715Z,8.67
2022-12-13T06:16:01.508Z,5.60
2022-12-13T06:18:32.283Z,7.07
2022-12-13T06:21:03.530Z,6.20
2022-12-13T06:23:33.693Z,4.80
2022-12-13T06:26:04.973Z,7.47
2022-12-13T06:28:34.552Z,6.20
2022-12-13T06:31:03.963Z,8.37
2022-12-13T06:33:35.796Z,10.37
2022-12-13T06:36:07.167Z,13.40
2022-12-13T06:38:43.525Z,6.50
2022-12-13T06:41:13.591Z,11.80
2022-12-13T06:43:44.347Z,8.17
2022-12-13T06:46:13.802Z,21.53
2022-12-13T06:48:43.976Z,17.73
2022-12-13T06:51:23.123Z,15.23
2022-12-13T06:54:02.793Z,13.30
2022-12-13T06:56:32.933Z,22.50
2022-12-13T06:59:02.438Z,11.63
2022-12-13T07:01:37.701Z,16.93
2022-12-13T07:04:29.272Z,11.97
2022-12-13T07:07:01.702Z,20.23
2022-12-13T07:09:32.171Z,18.10
2022-12-13T07:12:01.670Z,14.03
2022-12-13T07:14:40.723Z,8.97
2022-12-13T07:17:11.054Z,14.50
2022-12-13T07:19:40.514Z,10.17
2022-12-13T07:22:11.283Z,16.70
2022-12-13T07:24:40.468Z,11.90
2022-12-13T07:27:09.651Z,13.87
2022-12-13T07:29:39.635Z,22.20
2022-12-13T07:32:09.078Z,22.87
2022-12-13T07:34:38.296Z,21.13
2022-12-13T07:37:07.758Z,10.80
2022-12-13T07:40:03.232Z,23.27
2022-12-13T07:42:33.354Z,23.20
2022-12-13T07:45:02.884Z,22.90
2022-12-13T07:47:32.489Z,17.90
2022-12-13T07:50:01.983Z,16.70
2022-12-13T07:52:31.522Z,19.43
2022-12-13T07:55:02.396Z,11.47
2022-12-13T07:57:31.856Z,12.83
2022-12-13T08:00:00.997Z,18.30
2022-12-13T08:02:30.335Z,17.30
2022-12-13T08:04:59.642Z,13.90
2022-12-13T08:07:48.998Z,16.90
2022-12-13T08:10:19.833Z,19.93
2022-12-13T08:12:50.393Z,16.00
2022-12-13T08:15:19.789Z,10.70
2022-12-13T08:17:49.144Z,12.70
2022-12-13T08:20:21.963Z,28.50
2022-12-13T08:23:02.038Z,21.70
2022-12-13T08:25:33.339Z,17.93
2022-12-13T08:28:02.866Z,27.37
2022-12-13T08:30:33.354Z,37.67
2022-12-13T08:33:05.240Z,21.23
2022-12-13T08:35:35.449Z,34.60
2022-12-13T08:38:04.900Z,36.97
2022-12-13T08:40:35.722Z,41.33
2022-12-13T08:43:05.261Z,49.23
2022-12-13T08:45:35.191Z,33.57
2022-12-13T08:48:04.687Z,25.33
2022-12-13T08:50:33.997Z,23.67
2022-12-13T08:53:03.193Z,40.77
2022-12-13T08:55:32.610Z,32.10
2022-12-13T08:58:08.805Z,26.23
2022-12-13T09:00:40.992Z,43.57
2022-12-13T09:03:10.528Z,33.67
2022-12-13T09:05:40.066Z,46.60
2022-12-13T09:08:23.365Z,33.93
2022-12-13T09:11:00.502Z,39.87
2022-12-13T09:13:33.115Z,32.60
2022-12-13T09:16:14.076Z,25.33
2022-12-13T09:18:43.854Z,36.20
2022-12-13T09:21:22.409Z,39.00
2022-12-13T09:24:01.788Z,33.67
2022-12-13T09:26:38.401Z,24.40
2022-12-13T09:29:11.230Z,38.33
2022-12-13T09:31:41.383Z,23.00
2022-12-13T09:34:10.968Z,26.60
2022-12-13T09:36:40.300Z,34.27
2022-12-13T09:39:09.509Z,22.80
2022-12-13T09:41:41.057Z,27.60
2022-12-13T09:44:32.858Z,32.43
2022-12-13T09:47:13.426Z,29.00
2022-12-13T09:49:52.703Z,27.43
2022-12-13T09:52:24.525Z,28.40
2022-12-13T09:54:55.715Z,26.77
2022-12-13T09:57:31.860Z,26.20
2022-12-13T10:00:07.472Z,30.60
2022-12-13T10:02:42.300Z,27.03
2022-12-13T10:05:22.451Z,39.97
2022-12-13T10:07:55.518Z,28.00
2022-12-13T10:10:25.063Z,37.30
2022-12-13T10:12:57.061Z,32.57
2022-12-13T10:15:28.403Z,30.77
2022-12-13T10:17:57.865Z,30.80
2022-12-13T10:20:29.592Z,28.20
2022-12-13T10:25:52.116Z,38.30
2022-12-13T10:28:26.857Z,39.50
2022-12-13T10:30:58.506Z,26.00
2022-12-13T10:33:29.346Z,29.33
2022-12-13T10:36:09.599Z,23.00
2022-12-13T10:38:40.074Z,23.60
2022-12-13T10:41:29.448Z,30.20
2022-12-13T10:44:25.903Z,35.23
2022-12-13T10:47:04.078Z,28.37
2022-12-13T10:49:40.787Z,30.43
2022-12-13T10:52:31.436Z,22.73
2022-12-13T10:55:04.700Z,31.20
2022-12-13T10:57:53.775Z,28.27
2022-12-13T11:00:47.836Z,28.67
2022-12-13T11:03:43.836Z,24.13
2022-12-13T11:06:15.011Z,29.37
2022-12-13T11:08:44.550Z,34.20
2022-12-13T11:11:13.977Z,27.80
2022-12-13T11:13:46.841Z,26.87
2022-12-13T11:16:22.873Z,29.20
2022-12-13T11:18:56.288Z,34.73
2022-12-13T11:21:27.812Z,27.70
2022-12-13T11:24:01.825Z,36.10
2022-12-13T11:26:33.102Z,30.87
2022-12-13T11:29:09.259Z,31.50
2022-12-13T11:31:41.264Z,22.67
2022-12-13T11:34:17.667Z,23.93
2022-12-13T11:36:52.339Z,29.53
2022-12-13T11:39:23.383Z,23.03
2022-12-13T11:41:55.620Z,39.63
2022-12-13T11:44:28.026Z,37.90
2022-12-13T11:46:58.245Z,29.60
2022-12-13T11:49:34.641Z,38.73
2022-12-13T11:52:06.672Z,38.23
2022-12-13T11:54:40.325Z,43.57
2022-12-13T11:57:14.899Z,41.63
2022-12-13T11:59:46.960Z,39.43
2022-12-13T12:02:18.704Z,29.80
2022-12-13T12:04:56.409Z,37.43
2022-12-13T12:07:33.771Z,32.47
2022-12-13T12:10:07.444Z,36.63
2022-12-13T12:12:37.632Z,28.80
2022-12-13T12:15:15.646Z,30.10
2022-12-13T12:17:46.056Z,34.53
2022-12-13T12:20:23.771Z,42.80
2022-12-13T12:23:01.664Z,36.30
2022-12-13T12:25:33.548Z,29.80
2022-12-13T12:28:07.221Z,41.17
2022-12-13T12:30:42.137Z,34.30
2022-12-13T12:33:17.170Z,45.87
2022-12-13T12:36:06.374Z,37.30
2022-12-13T12:38:53.310Z,47.20
2022-12-13T12:41:32.107Z,38.70
2022-12-13T12:44:06.376Z,35.57
2022-12-13T12:47:08.782Z,37.90
2022-12-13T12:49:57.657Z,47.67
2022-12-13T12:52:32.556Z,46.27
2022-12-13T12:55:05.640Z,35.40
2022-12-13T12:57:40.807Z,33.07
2022-12-13T13:00:12.973Z,37.50
2022-12-13T13:02:45.418Z,39.40
2022-12-13T13:05:17.879Z,32.77
2022-12-13T13:07:51.215Z,47.43
2022-12-13T13:10:26.356Z,42.40
2022-12-13T13:13:12.552Z,44.30
2022-12-13T13:15:46.451Z,34.37
2022-12-13T13:18:30.554Z,41.63
2022-12-13T13:21:14.572Z,38.53
2022-12-13T13:23:45.843Z,38.33
2022-12-13T13:26:27.053Z,44.67
2022-12-13T13:29:27.020Z,37.87
2022-12-13T13:32:01.904Z,42.47
2022-12-13T13:34:36.158Z,44.63
2022-12-13T13:37:06.157Z,43.67
2022-12-13T13:39:57.048Z,41.10
2022-12-13T13:42:26.845Z,41.70
2022-12-13T13:45:04.672Z,35.33
2022-12-13T13:47:39.144Z,43.60
2022-12-13T13:50:26.841Z,47.30
2022-12-13T13:53:00.242Z,46.67
2022-12-13T13:55:46.180Z,48.27
2022-12-13T13:58:34.461Z,46.83
2022-12-13T14:01:23.308Z,48.43
2022-12-13T14:04:07.777Z,50.47
2022-12-13T14:07:00.961Z,39.73
2022-12-13T14:09:49.384Z,49.93
2022-12-13T14:12:45.614Z,49.33
2022-12-13T14:15:29.871Z,45.33
2022-12-13T14:18:22.857Z,48.23
2022-12-13T14:20:56.186Z,44.70
2022-12-13T14:23:35.968Z,46.80
2022-12-13T14:26:14.739Z,40.50
2022-12-13T14:28:49.773Z,49.63
2022-12-13T14:31:22.339Z,33.43
2022-12-13T14:33:54.564Z,31.13
2022-12-13T14:36:29.167Z,29.00
2022-12-13T14:39:02.740Z,39.57
2022-12-13T14:41:32.161Z,38.60
2022-12-13T14:44:16.960Z,34.40
2022-12-13T14:46:53.002Z,42.87
2022-12-13T14:49:24.452Z,32.27
2022-12-13T14:52:01.629Z,32.10
2022-12-13T14:54:33.407Z,38.17
2022-12-13T14:57:04.340Z,31.40
2022-12-13T14:59:34.675Z,32.70
2022-12-13T15:02:04.790Z,25.63
2022-12-13T15:04:38.039Z,30.83
2022-12-13T15:07:09.570Z,34.13
2022-12-13T15:09:40.912Z,38.03
2022-12-13T15:12:23.974Z,26.63
2022-12-13T15:15:00.536Z,25.27
2022-12-13T15:17:34.967Z,27.20
2022-12-13T15:20:25.023Z,34.67
2022-12-13T15:23:01.721Z,28.63
2022-12-13T15:25:36.114Z,28.50
2022-12-13T15:28:05.914Z,33.50
2022-12-13T15:30:37.361Z,33.17
2022-12-13T15:33:10.998Z,31.90
2022-12-13T15:35:40.285Z,29.13
2022-12-13T15:38:28.255Z,32.60
2022-12-13T15:41:00.856Z,35.67
2022-12-13T15:43:34.603Z,26.43
2022-12-13T15:46:04.051Z,39.73
2022-12-13T15:48:34.586Z,41.20
2022-12-13T15:51:08.111Z,32.10
2022-12-13T15:53:39.500Z,41.00
2022-12-13T15:56:27.645Z,44.60
2022-12-13T15:58:57.713Z,43.20
2022-12-13T16:01:28.161Z,38.07
2022-12-13T16:03:57.662Z,39.93
2022-12-13T16:06:28.278Z,72.13
2022-12-13T16:08:59.803Z,51.57
2022-12-13T16:11:30.389Z,46.57
2022-12-13T16:14:14.459Z,41.23
2022-12-13T16:16:55.807Z,51.53
2022-12-13T16:19:25.192Z,42.50
2022-12-13T16:21:54.557Z,43.80
2022-12-13T16:24:25.162Z,37.97
2022-12-13T16:26:54.719Z,37.13
2022-12-13T16:29:23.878Z,46.23
2022-12-13T16:31:57.084Z,39.70
2022-12-13T16:34:31.042Z,45.13
2022-12-13T16:37:00.442Z,55.40
2022-12-13T16:39:31.098Z,39.07
2022-12-13T16:42:00.478Z,34.90
2022-12-13T16:44:50.139Z,32.80
2022-12-13T16:47:24.696Z,33.37
2022-12-13T16:49:59.535Z,30.57
2022-12-13T16:52:28.755Z,40.07
2022-12-13T16:55:00.790Z,35.37
2022-12-13T16:57:30.214Z,43.93
2022-12-13T16:59:59.712Z,30.17
2022-12-13T17:02:29.369Z,34.30
2022-12-13T17:04:58.523Z,36.67
2022-12-13T17:07:27.816Z,38.57
2022-12-13T17:09:56.922Z,33.17
2022-12-13T17:12:28.069Z,36.17
2022-12-13T17:14:57.310Z,34.40
2022-12-13T17:17:26.517Z,40.83
2022-12-13T17:19:56.163Z,29.63
2022-12-13T17:22:26.006Z,35.93
2022-12-13T17:24:55.184Z,43.17
2022-12-13T17:27:24.363Z,31.03
2022-12-13T17:29:55.035Z,29.90
2022-12-13T17:32:24.225Z,28.33
2022-12-13T17:34:53.803Z,38.90
2022-12-13T17:37:23.058Z,36.27
2022-12-13T17:39:52.256Z,31.80
2022-12-13T17:42:21.543Z,43.87
2022-12-13T17:44:50.671Z,30.83
2022-12-13T17:47:21.368Z,29.27
2022-12-13T17:49:50.739Z,28.70
2022-12-13T17:52:19.814Z,36.17
2022-12-13T17:54:49.295Z,44.37
2022-12-13T17:57:18.568Z,32.23
2022-12-13T17:59:48.446Z,32.13
2022-12-13T18:02:22.934Z,27.80
2022-12-13T18:04:54.143Z,39.20
2022-12-13T18:07:23.407Z,35.10
2022-12-13T18:09:52.657Z,36.43
2022-12-13T18:12:22.012Z,33.47
2022-12-13T18:14:51.240Z,35.50
2022-12-13T18:17:20.510Z,25.63
2022-12-13T18:19:49.700Z,29.83
2022-12-13T18:22:20.494Z,32.87
2022-12-13T18:24:49.767Z,35.87
2022-12-13T18:27:19.016Z,36.13
2022-12-13T18:29:55.282Z,48.83
2022-12-13T18:32:24.997Z,35.63
2022-12-13T18:34:54.680Z,33.17
2022-12-13T18:37:26.061Z,29.47
2022-12-13T18:39:55.453Z,34.07
2022-12-13T18:42:25.001Z,34.93
2022-12-13T18:44:55.040Z,30.80
2022-12-13T18:47:24.754Z,34.17
2022-12-13T18:49:55.075Z,29.87
2022-12-13T18:52:27.217Z,28.00
2022-12-13T18:54:56.490Z,36.97
2022-12-13T18:57:26.080Z,32.90
2022-12-13T18:59:55.491Z,33.87
2022-12-13T19:02:26.365Z,41.23
2022-12-13T19:04:58.975Z,27.80
2022-12-13T19:07:29.670Z,37.83
2022-12-13T19:09:59.106Z,28.67
2022-12-13T19:12:28.374Z,22.97
2022-12-13T19:14:57.779Z,29.53
2022-12-13T19:17:26.976Z,26.37
2022-12-13T19:19:56.249Z,29.57
2022-12-13T19:22:25.732Z,29.50
2022-12-13T19:24:56.482Z,29.83
2022-12-13T19:27:25.727Z,31.20
2022-12-13T19:29:54.972Z,29.40
2022-12-13T19:32:24.367Z,22.67
2022-12-13T19:34:54.256Z,31.63
2022-12-13T19:37:23.518Z,30.50
2022-12-13T19:39:52.711Z,40.53
2022-12-13T19:42:23.421Z,30.83
2022-12-13T19:44:53.902Z,31.80
2022-12-13T19:47:23.093Z,42.53
2022-12-13T19:49:52.505Z,38.53
2022-12-13T19:52:21.695Z,30.10
2022-12-13T19:54:50.947Z,34.50
2022-12-13T19:57:20.374Z,27.57
2022-12-13T19:59:51.417Z,26.93
2022-12-13T20:02:20.630Z,32.73
2022-12-13T20:04:50.323Z,27.30
2022-12-13T20:07:20.818Z,87.57
2022-12-13T20:09:49.978Z,32.67
2022-12-13T20:12:19.281Z,38.23
2022-12-13T20:14:48.778Z,28.80
2022-12-13T20:17:19.595Z,40.37
2022-12-13T20:19:49.019Z,33.20
2022-12-13T20:22:18.324Z,30.03
2022-12-13T20:24:47.500Z,32.20
2022-12-13T20:27:17.278Z,36.13
2022-12-13T20:29:48.473Z,40.10
2022-12-13T20:32:21.100Z,31.93
2022-12-13T20:34:54.548Z,33.73
2022-12-13T20:37:27.558Z,44.97
2022-12-13T20:39:56.822Z,31.27
2022-12-13T20:42:26.232Z,40.00
2022-12-13T20:44:55.523Z,37.30
2022-12-13T20:47:26.310Z,35.50
2022-12-13T20:49:55.628Z,45.87
2022-12-13T20:52:24.797Z,34.80
2022-12-13T20:54:54.058Z,28.83
2022-12-13T20:57:23.193Z,34.63
2022-12-13T20:59:52.644Z,35.87
2022-12-13T21:02:21.813Z,32.50
2022-12-13T21:04:52.459Z,43.17
2022-12-13T21:07:42.092Z,38.53
2022-12-13T21:10:11.750Z,39.27
2022-12-13T21:12:40.893Z,34.10
2022-12-13T21:15:10.868Z,41.30
2022-12-13T21:17:39.985Z,30.23
2022-12-13T21:20:11.702Z,37.27
2022-12-13T21:22:40.925Z,41.50
2022-12-13T21:25:10.611Z,36.23
2022-12-13T21:27:40.230Z,36.97
2022-12-13T21:30:10.062Z,35.70
2022-12-13T21:32:39.531Z,31.47
2022-12-13T21:35:12.059Z,32.73
2022-12-13T21:37:41.331Z,38.07
2022-12-13T21:40:11.061Z,31.37
2022-12-13T21:42:40.352Z,38.00
2022-12-13T21:45:09.739Z,40.40
2022-12-13T21:47:39.027Z,38.57
2022-12-13T21:50:09.131Z,31.73
2022-12-13T21:52:40.632Z,29.03
2022-12-13T21:55:39.743Z,25.70
2022-12-13T21:58:19.039Z,22.03
2022-12-13T22:00:48.455Z,22.30
2022-12-13T22:03:17.713Z,22.93
2022-12-13T22:05:47.036Z,26.63
2022-12-13T22:08:17.879Z,23.63
2022-12-13T22:11:00.904Z,31.83
2022-12-13T22:13:30.130Z,20.50
2022-12-13T22:15:59.286Z,25.43
2022-12-13T22:18:29.037Z,21.40
2022-12-13T22:20:58.649Z,21.23
2022-12-13T22:23:29.641Z,20.60
2022-12-13T22:25:58.928Z,36.53
2022-12-13T22:28:31.214Z,25.90
2022-12-13T22:31:00.432Z,32.60
2022-12-13T22:33:29.620Z,35.57
2022-12-13T22:36:02.653Z,33.20
2022-12-13T22:38:33.428Z,37.33
2022-12-13T22:41:02.907Z,38.37
2022-12-13T22:43:35.248Z,38.40
2022-12-13T22:46:05.062Z,44.57
2022-12-13T22:48:34.668Z,42.73
2022-12-13T22:51:04.528Z,38.47
2022-12-13T22:53:35.267Z,39.73
2022-12-13T22:56:05.329Z,34.00
2022-12-13T22:58:34.493Z,42.80
2022-12-13T23:01:09.536Z,38.87
2022-12-13T23:03:39.313Z,36.90
2022-12-13T23:06:12.292Z,33.77
2022-12-13T23:08:45.040Z,30.33
2022-12-13T23:11:32.012Z,30.00
2022-12-13T23:14:02.316Z,26.87
2022-12-13T23:16:33.126Z,28.80
2022-12-13T23:19:32.117Z,28.93
2022-12-13T23:21:52.070Z,25.23
2022-12-13T23:24:23.805Z,28.37
2022-12-13T23:26:52.897Z,23.60
2022-12-13T23:29:22.199Z,24.53
2022-12-13T23:31:51.295Z,23.80
2022-12-13T23:34:20.536Z,20.57
2022-12-13T23:36:50.236Z,26.40
2022-12-13T23:39:19.399Z,22.60
2022-12-13T23:41:50.020Z,18.30
2022-12-13T23:44:19.320Z,17.73
2022-12-13T23:46:49.107Z,18.03
2022-12-13T23:49:18.640Z,16.50
2022-12-13T23:51:47.806Z,17.10
2022-12-13T23:54:19.745Z,14.33
2022-12-13T23:56:50.537Z,13.90
2022-12-13T23:59:20.032Z,16.13
